sensor_id;sensor_type;location;lat;lon;timestamp;P1;durP1;ratioP1;P2;durP2;ratioP2
19585;SDS011;9939;49.246;9.106;2022-10-16T00:02:16;3.43;;;1.83;;
19585;SDS011;9939;49.246;9.106;2022-10-16T00:04:43;6.70;;;1.70;;
19585;SDS011;9939;49.246;9.106;2022-10-16T00:07:10;4.33;;;1.80;;
19585;SDS011;9939;49.246;9.106;2022-10-16T00:09:37;5.20;;;2.07;;
19585;SDS011;9939;49.246;9.106;2022-10-16T00:12:04;2.53;;;1.40;;
19585;SDS011;9939;49.246;9.106;2022-10-16T00:14:33;3.00;;;1.40;;
19585;SDS011;9939;49.246;9.106;2022-10-16T00:17:00;4.50;;;1.80;;
19585;SDS011;9939;49.246;9.106;2022-10-16T00:19:27;3.10;;;1.40;;
19585;SDS011;9939;49.246;9.106;2022-10-16T00:21:55;3.30;;;1.50;;
19585;SDS011;9939;49.246;9.106;2022-10-16T00:24:22;5.57;;;1.70;;
19585;SDS011;9939;49.246;9.106;2022-10-16T00:26:49;4.60;;;1.27;;
19585;SDS011;9939;49.246;9.106;2022-10-16T00:29:17;1.63;;;1.20;;
19585;SDS011;9939;49.246;9.106;2022-10-16T00:31:44;5.17;;;1.87;;
19585;SDS011;9939;49.246;9.106;2022-10-16T00:34:11;4.73;;;1.40;;
19585;SDS011;9939;49.246;9.106;2022-10-16T00:36:39;5.40;;;1.80;;
19585;SDS011;9939;49.246;9.106;2022-10-16T00:39:06;3.27;;;1.60;;
19585;SDS011;9939;49.246;9.106;2022-10-16T00:41:33;5.80;;;1.97;;
19585;SDS011;9939;49.246;9.106;2022-10-16T00:44:01;7.10;;;2.20;;
19585;SDS011;9939;49.246;9.106;2022-10-16T00:46:38;8.03;;;2.10;;
19585;SDS011;9939;49.246;9.106;2022-10-16T00:49:10;3.93;;;1.80;;
19585;SDS011;9939;49.246;9.106;2022-10-16T00:51:46;7.10;;;1.70;;
19585;SDS011;9939;49.246;9.106;2022-10-16T00:54:26;2.43;;;1.50;;
19585;SDS011;9939;49.246;9.106;2022-10-16T00:56:56;5.53;;;1.87;;
19585;SDS011;9939;49.246;9.106;2022-10-16T00:59:28;6.13;;;1.87;;
19585;SDS011;9939;49.246;9.106;2022-10-16T01:01:57;5.40;;;1.30;;
19585;SDS011;9939;49.246;9.106;2022-10-16T01:04:26;7.97;;;1.80;;
19585;SDS011;9939;49.246;9.106;2022-10-16T01:10:02;5.73;;;2.50;;
19585;SDS011;9939;49.246;9.106;2022-10-16T01:12:45;8.83;;;3.83;;
19585;SDS011;9939;49.246;9.106;2022-10-16T01:20:54;7.40;;;1.80;;
19585;SDS011;9939;49.246;9.106;2022-10-16T01:23:31;4.97;;;1.50;;
19585;SDS011;9939;49.246;9.106;2022-10-16T01:28:55;3.93;;;1.47;;
19585;SDS011;9939;49.246;9.106;2022-10-16T01:31:31;2.53;;;1.27;;
19585;SDS011;9939;49.246;9.106;2022-10-16T01:34:05;2.33;;;1.50;;
19585;SDS011;9939;49.246;9.106;2022-10-16T01:36:53;3.50;;;1.50;;
19585;SDS011;9939;49.246;9.106;2022-10-16T01:39:28;2.47;;;1.30;;
19585;SDS011;9939;49.246;9.106;2022-10-16T01:42:00;4.93;;;1.30;;
19585;SDS011;9939;49.246;9.106;2022-10-16T01:44:32;4.80;;;1.43;;
19585;SDS011;9939;49.246;9.106;2022-10-16T01:47:02;7.00;;;1.67;;
19585;SDS011;9939;49.246;9.106;2022-10-16T01:49:32;3.13;;;1.50;;
19585;SDS011;9939;49.246;9.106;2022-10-16T01:52:04;3.90;;;1.30;;
19585;SDS011;9939;49.246;9.106;2022-10-16T01:54:36;4.17;;;1.40;;
19585;SDS011;9939;49.246;9.106;2022-10-16T01:57:06;7.33;;;1.53;;
19585;SDS011;9939;49.246;9.106;2022-10-16T01:59:37;4.90;;;1.50;;
19585;SDS011;9939;49.246;9.106;2022-10-16T02:02:09;4.30;;;1.73;;
19585;SDS011;9939;49.246;9.106;2022-10-16T02:04:39;5.83;;;1.50;;
19585;SDS011;9939;49.246;9.106;2022-10-16T02:07:12;7.17;;;2.27;;
19585;SDS011;9939;49.246;9.106;2022-10-16T02:09:40;3.07;;;1.40;;
19585;SDS011;9939;49.246;9.106;2022-10-16T02:12:29;5.10;;;1.53;;
19585;SDS011;9939;49.246;9.106;2022-10-16T02:14:57;4.30;;;1.50;;
19585;SDS011;9939;49.246;9.106;2022-10-16T02:17:25;5.07;;;1.63;;
19585;SDS011;9939;49.246;9.106;2022-10-16T02:19:53;2.27;;;1.43;;
19585;SDS011;9939;49.246;9.106;2022-10-16T02:22:56;6.53;;;2.50;;
19585;SDS011;9939;49.246;9.106;2022-10-16T02:30:24;1.90;;;1.40;;
19585;SDS011;9939;49.246;9.106;2022-10-16T02:32:58;2.57;;;1.33;;
19585;SDS011;9939;49.246;9.106;2022-10-16T02:35:29;5.60;;;1.80;;
19585;SDS011;9939;49.246;9.106;2022-10-16T02:37:58;6.20;;;1.53;;
19585;SDS011;9939;49.246;9.106;2022-10-16T02:40:25;4.10;;;1.50;;
19585;SDS011;9939;49.246;9.106;2022-10-16T02:42:54;4.83;;;1.47;;
19585;SDS011;9939;49.246;9.106;2022-10-16T02:45:22;6.27;;;1.70;;
19585;SDS011;9939;49.246;9.106;2022-10-16T02:47:50;4.70;;;1.50;;
19585;SDS011;9939;49.246;9.106;2022-10-16T02:50:17;2.30;;;1.20;;
19585;SDS011;9939;49.246;9.106;2022-10-16T02:52:45;3.77;;;1.40;;
19585;SDS011;9939;49.246;9.106;2022-10-16T02:55:12;4.13;;;1.27;;
19585;SDS011;9939;49.246;9.106;2022-10-16T02:57:39;3.63;;;1.40;;
19585;SDS011;9939;49.246;9.106;2022-10-16T03:00:07;2.83;;;1.50;;
19585;SDS011;9939;49.246;9.106;2022-10-16T03:02:36;2.70;;;1.57;;
19585;SDS011;9939;49.246;9.106;2022-10-16T03:05:03;4.47;;;1.50;;
19585;SDS011;9939;49.246;9.106;2022-10-16T03:07:31;4.07;;;1.50;;
19585;SDS011;9939;49.246;9.106;2022-10-16T03:09:59;3.77;;;1.27;;
19585;SDS011;9939;49.246;9.106;2022-10-16T03:12:27;4.37;;;1.40;;
19585;SDS011;9939;49.246;9.106;2022-10-16T03:14:55;3.13;;;1.40;;
19585;SDS011;9939;49.246;9.106;2022-10-16T03:17:23;3.43;;;1.30;;
19585;SDS011;9939;49.246;9.106;2022-10-16T03:19:51;3.27;;;1.30;;
19585;SDS011;9939;49.246;9.106;2022-10-16T03:22:18;4.33;;;1.30;;
19585;SDS011;9939;49.246;9.106;2022-10-16T03:24:45;2.33;;;1.37;;
19585;SDS011;9939;49.246;9.106;2022-10-16T03:27:12;5.10;;;1.80;;
19585;SDS011;9939;49.246;9.106;2022-10-16T03:29:39;2.87;;;1.50;;
19585;SDS011;9939;49.246;9.106;2022-10-16T03:32:06;4.17;;;1.37;;
19585;SDS011;9939;49.246;9.106;2022-10-16T03:34:33;4.63;;;1.57;;
19585;SDS011;9939;49.246;9.106;2022-10-16T03:37:01;3.60;;;1.33;;
19585;SDS011;9939;49.246;9.106;2022-10-16T03:39:28;4.00;;;1.40;;
19585;SDS011;9939;49.246;9.106;2022-10-16T03:41:55;3.60;;;1.40;;
19585;SDS011;9939;49.246;9.106;2022-10-16T03:44:22;4.67;;;1.53;;
19585;SDS011;9939;49.246;9.106;2022-10-16T03:46:49;5.03;;;1.87;;
19585;SDS011;9939;49.246;9.106;2022-10-16T03:49:16;2.67;;;1.40;;
19585;SDS011;9939;49.246;9.106;2022-10-16T03:51:43;6.27;;;1.50;;
19585;SDS011;9939;49.246;9.106;2022-10-16T03:54:10;1.97;;;1.23;;
19585;SDS011;9939;49.246;9.106;2022-10-16T03:56:37;7.43;;;2.27;;
19585;SDS011;9939;49.246;9.106;2022-10-16T03:59:04;2.80;;;1.43;;
19585;SDS011;9939;49.246;9.106;2022-10-16T04:01:31;6.53;;;1.80;;
19585;SDS011;9939;49.246;9.106;2022-10-16T04:03:58;3.77;;;1.47;;
19585;SDS011;9939;49.246;9.106;2022-10-16T04:06:26;6.13;;;1.80;;
19585;SDS011;9939;49.246;9.106;2022-10-16T04:08:53;4.40;;;1.37;;
19585;SDS011;9939;49.246;9.106;2022-10-16T04:11:20;4.67;;;1.43;;
19585;SDS011;9939;49.246;9.106;2022-10-16T04:13:47;3.10;;;1.50;;
19585;SDS011;9939;49.246;9.106;2022-10-16T04:16:14;5.00;;;1.73;;
19585;SDS011;9939;49.246;9.106;2022-10-16T04:18:41;6.97;;;1.53;;
19585;SDS011;9939;49.246;9.106;2022-10-16T04:21:08;3.87;;;1.80;;
19585;SDS011;9939;49.246;9.106;2022-10-16T04:23:35;4.53;;;1.60;;
19585;SDS011;9939;49.246;9.106;2022-10-16T04:26:02;4.23;;;1.77;;
19585;SDS011;9939;49.246;9.106;2022-10-16T04:28:29;4.00;;;1.50;;
19585;SDS011;9939;49.246;9.106;2022-10-16T04:30:56;4.60;;;1.73;;
19585;SDS011;9939;49.246;9.106;2022-10-16T04:33:24;4.93;;;1.50;;
19585;SDS011;9939;49.246;9.106;2022-10-16T04:35:58;5.17;;;1.40;;
19585;SDS011;9939;49.246;9.106;2022-10-16T04:38:26;3.10;;;1.40;;
19585;SDS011;9939;49.246;9.106;2022-10-16T04:40:53;3.77;;;1.50;;
19585;SDS011;9939;49.246;9.106;2022-10-16T04:43:20;4.63;;;1.50;;
19585;SDS011;9939;49.246;9.106;2022-10-16T04:45:47;3.60;;;1.90;;
19585;SDS011;9939;49.246;9.106;2022-10-16T04:48:17;5.97;;;1.53;;
19585;SDS011;9939;49.246;9.106;2022-10-16T04:50:44;5.87;;;1.87;;
19585;SDS011;9939;49.246;9.106;2022-10-16T04:53:16;5.07;;;2.00;;
19585;SDS011;9939;49.246;9.106;2022-10-16T04:55:44;3.30;;;1.80;;
19585;SDS011;9939;49.246;9.106;2022-10-16T04:58:11;3.73;;;1.47;;
19585;SDS011;9939;49.246;9.106;2022-10-16T05:00:38;4.27;;;1.97;;
19585;SDS011;9939;49.246;9.106;2022-10-16T05:03:05;4.87;;;1.57;;
19585;SDS011;9939;49.246;9.106;2022-10-16T05:05:35;8.07;;;1.70;;
19585;SDS011;9939;49.246;9.106;2022-10-16T05:08:03;5.47;;;1.80;;
19585;SDS011;9939;49.246;9.106;2022-10-16T05:10:30;6.30;;;2.10;;
19585;SDS011;9939;49.246;9.106;2022-10-16T05:12:57;6.40;;;1.80;;
19585;SDS011;9939;49.246;9.106;2022-10-16T05:15:24;8.13;;;2.17;;
19585;SDS011;9939;49.246;9.106;2022-10-16T05:17:52;6.10;;;1.90;;
19585;SDS011;9939;49.246;9.106;2022-10-16T05:20:20;3.67;;;1.60;;
19585;SDS011;9939;49.246;9.106;2022-10-16T05:22:48;3.93;;;1.60;;
19585;SDS011;9939;49.246;9.106;2022-10-16T05:25:15;6.43;;;1.70;;
19585;SDS011;9939;49.246;9.106;2022-10-16T05:27:42;7.97;;;2.70;;
19585;SDS011;9939;49.246;9.106;2022-10-16T05:30:09;5.53;;;1.63;;
19585;SDS011;9939;49.246;9.106;2022-10-16T05:32:38;4.43;;;1.90;;
19585;SDS011;9939;49.246;9.106;2022-10-16T05:35:05;3.40;;;1.97;;
19585;SDS011;9939;49.246;9.106;2022-10-16T05:37:37;5.97;;;1.77;;
19585;SDS011;9939;49.246;9.106;2022-10-16T05:40:05;5.73;;;1.70;;
19585;SDS011;9939;49.246;9.106;2022-10-16T05:42:33;6.00;;;1.80;;
19585;SDS011;9939;49.246;9.106;2022-10-16T05:45:00;6.43;;;1.70;;
19585;SDS011;9939;49.246;9.106;2022-10-16T05:47:27;5.67;;;1.90;;
19585;SDS011;9939;49.246;9.106;2022-10-16T05:49:54;3.57;;;1.53;;
19585;SDS011;9939;49.246;9.106;2022-10-16T05:52:22;1.83;;;1.40;;
19585;SDS011;9939;49.246;9.106;2022-10-16T05:54:49;4.00;;;1.80;;
19585;SDS011;9939;49.246;9.106;2022-10-16T05:57:16;4.23;;;1.67;;
19585;SDS011;9939;49.246;9.106;2022-10-16T05:59:43;7.23;;;1.83;;
19585;SDS011;9939;49.246;9.106;2022-10-16T06:02:14;3.00;;;1.80;;
19585;SDS011;9939;49.246;9.106;2022-10-16T06:04:42;7.70;;;1.93;;
19585;SDS011;9939;49.246;9.106;2022-10-16T06:07:09;6.10;;;2.07;;
19585;SDS011;9939;49.246;9.106;2022-10-16T06:09:37;4.60;;;1.80;;
19585;SDS011;9939;49.246;9.106;2022-10-16T06:12:04;5.77;;;1.83;;
19585;SDS011;9939;49.246;9.106;2022-10-16T06:14:31;6.37;;;2.23;;
19585;SDS011;9939;49.246;9.106;2022-10-16T06:16:58;3.90;;;1.83;;
19585;SDS011;9939;49.246;9.106;2022-10-16T06:19:25;4.80;;;2.27;;
19585;SDS011;9939;49.246;9.106;2022-10-16T06:21:52;5.93;;;2.13;;
19585;SDS011;9939;49.246;9.106;2022-10-16T06:24:19;3.70;;;1.90;;
19585;SDS011;9939;49.246;9.106;2022-10-16T06:26:46;4.23;;;2.17;;
19585;SDS011;9939;49.246;9.106;2022-10-16T06:29:13;5.80;;;2.20;;
19585;SDS011;9939;49.246;9.106;2022-10-16T06:31:40;8.57;;;2.10;;
19585;SDS011;9939;49.246;9.106;2022-10-16T06:34:08;5.03;;;2.10;;
19585;SDS011;9939;49.246;9.106;2022-10-16T06:36:38;5.63;;;1.80;;
19585;SDS011;9939;49.246;9.106;2022-10-16T06:39:05;5.30;;;2.50;;
19585;SDS011;9939;49.246;9.106;2022-10-16T06:41:33;6.07;;;2.23;;
19585;SDS011;9939;49.246;9.106;2022-10-16T06:44:13;8.10;;;2.20;;
19585;SDS011;9939;49.246;9.106;2022-10-16T06:46:40;4.90;;;2.27;;
19585;SDS011;9939;49.246;9.106;2022-10-16T06:49:08;4.20;;;2.13;;
19585;SDS011;9939;49.246;9.106;2022-10-16T06:51:35;8.07;;;3.03;;
19585;SDS011;9939;49.246;9.106;2022-10-16T06:54:09;9.33;;;3.23;;
19585;SDS011;9939;49.246;9.106;2022-10-16T06:56:36;4.80;;;2.23;;
19585;SDS011;9939;49.246;9.106;2022-10-16T06:59:04;3.93;;;2.13;;
19585;SDS011;9939;49.246;9.106;2022-10-16T07:01:31;6.87;;;2.27;;
19585;SDS011;9939;49.246;9.106;2022-10-16T07:03:59;6.47;;;2.23;;
19585;SDS011;9939;49.246;9.106;2022-10-16T07:06:27;6.87;;;2.47;;
19585;SDS011;9939;49.246;9.106;2022-10-16T07:09:00;7.17;;;2.47;;
19585;SDS011;9939;49.246;9.106;2022-10-16T07:11:30;7.00;;;2.37;;
19585;SDS011;9939;49.246;9.106;2022-10-16T07:13:57;5.33;;;1.70;;
19585;SDS011;9939;49.246;9.106;2022-10-16T07:16:27;4.50;;;1.87;;
19585;SDS011;9939;49.246;9.106;2022-10-16T07:18:58;2.87;;;1.60;;
19585;SDS011;9939;49.246;9.106;2022-10-16T07:21:28;5.77;;;1.70;;
19585;SDS011;9939;49.246;9.106;2022-10-16T07:23:58;5.33;;;1.60;;
19585;SDS011;9939;49.246;9.106;2022-10-16T07:26:29;4.57;;;1.40;;
19585;SDS011;9939;49.246;9.106;2022-10-16T07:28:58;4.90;;;1.40;;
19585;SDS011;9939;49.246;9.106;2022-10-16T07:31:27;2.33;;;1.50;;
19585;SDS011;9939;49.246;9.106;2022-10-16T07:33:54;2.70;;;1.50;;
19585;SDS011;9939;49.246;9.106;2022-10-16T07:36:23;2.83;;;1.30;;
19585;SDS011;9939;49.246;9.106;2022-10-16T07:38:50;7.33;;;1.60;;
19585;SDS011;9939;49.246;9.106;2022-10-16T07:41:24;6.17;;;1.60;;
19585;SDS011;9939;49.246;9.106;2022-10-16T07:43:51;2.70;;;1.27;;
19585;SDS011;9939;49.246;9.106;2022-10-16T07:46:19;3.77;;;1.63;;
19585;SDS011;9939;49.246;9.106;2022-10-16T07:48:48;7.43;;;1.70;;
19585;SDS011;9939;49.246;9.106;2022-10-16T07:51:16;7.00;;;1.50;;
19585;SDS011;9939;49.246;9.106;2022-10-16T07:53:44;6.43;;;1.60;;
19585;SDS011;9939;49.246;9.106;2022-10-16T07:56:12;2.07;;;1.30;;
19585;SDS011;9939;49.246;9.106;2022-10-16T07:58:40;4.17;;;1.43;;
19585;SDS011;9939;49.246;9.106;2022-10-16T08:01:08;5.73;;;1.63;;
19585;SDS011;9939;49.246;9.106;2022-10-16T08:03:37;4.70;;;1.60;;
19585;SDS011;9939;49.246;9.106;2022-10-16T08:06:04;3.57;;;1.40;;
19585;SDS011;9939;49.246;9.106;2022-10-16T08:08:31;6.70;;;1.70;;
19585;SDS011;9939;49.246;9.106;2022-10-16T08:10:58;7.90;;;1.60;;
19585;SDS011;9939;49.246;9.106;2022-10-16T08:13:26;7.27;;;1.57;;
19585;SDS011;9939;49.246;9.106;2022-10-16T08:15:53;2.00;;;1.30;;
19585;SDS011;9939;49.246;9.106;2022-10-16T08:18:21;6.17;;;1.20;;
19585;SDS011;9939;49.246;9.106;2022-10-16T08:20:54;2.23;;;1.20;;
19585;SDS011;9939;49.246;9.106;2022-10-16T08:23:24;3.73;;;1.23;;
19585;SDS011;9939;49.246;9.106;2022-10-16T08:25:56;2.63;;;1.40;;
19585;SDS011;9939;49.246;9.106;2022-10-16T08:28:28;3.83;;;1.33;;
19585;SDS011;9939;49.246;9.106;2022-10-16T08:30:56;4.70;;;1.30;;
19585;SDS011;9939;49.246;9.106;2022-10-16T08:33:30;4.13;;;1.30;;
19585;SDS011;9939;49.246;9.106;2022-10-16T08:35:57;3.33;;;1.13;;
19585;SDS011;9939;49.246;9.106;2022-10-16T08:38:24;2.83;;;1.47;;
19585;SDS011;9939;49.246;9.106;2022-10-16T08:40:51;1.43;;;1.20;;
19585;SDS011;9939;49.246;9.106;2022-10-16T08:43:29;3.60;;;1.50;;
19585;SDS011;9939;49.246;9.106;2022-10-16T08:48:58;3.87;;;1.53;;
19585;SDS011;9939;49.246;9.106;2022-10-16T08:51:28;5.80;;;1.57;;
19585;SDS011;9939;49.246;9.106;2022-10-16T08:56:56;2.87;;;1.10;;
19585;SDS011;9939;49.246;9.106;2022-10-16T08:59:26;3.53;;;1.30;;
19585;SDS011;9939;49.246;9.106;2022-10-16T09:01:53;2.63;;;1.20;;
19585;SDS011;9939;49.246;9.106;2022-10-16T09:22:44;5.40;;;1.40;;
19585;SDS011;9939;49.246;9.106;2022-10-16T09:25:15;2.03;;;1.27;;
19585;SDS011;9939;49.246;9.106;2022-10-16T09:27:45;6.20;;;1.50;;
19585;SDS011;9939;49.246;9.106;2022-10-16T09:30:15;4.17;;;1.17;;
19585;SDS011;9939;49.246;9.106;2022-10-16T09:32:45;3.23;;;1.30;;
19585;SDS011;9939;49.246;9.106;2022-10-16T09:35:21;4.33;;;1.53;;
19585;SDS011;9939;49.246;9.106;2022-10-16T09:37:54;2.87;;;1.40;;
19585;SDS011;9939;49.246;9.106;2022-10-16T09:40:37;3.23;;;1.40;;
19585;SDS011;9939;49.246;9.106;2022-10-16T09:43:19;2.63;;;1.40;;
19585;SDS011;9939;49.246;9.106;2022-10-16T09:45:59;4.43;;;1.50;;
19585;SDS011;9939;49.246;9.106;2022-10-16T09:48:33;2.17;;;1.20;;
19585;SDS011;9939;49.246;9.106;2022-10-16T09:51:16;3.60;;;1.37;;
19585;SDS011;9939;49.246;9.106;2022-10-16T09:53:55;3.57;;;1.33;;
19585;SDS011;9939;49.246;9.106;2022-10-16T09:56:31;2.07;;;1.13;;
19585;SDS011;9939;49.246;9.106;2022-10-16T09:59:01;3.70;;;1.40;;
19585;SDS011;9939;49.246;9.106;2022-10-16T10:04:11;6.87;;;1.63;;
19585;SDS011;9939;49.246;9.106;2022-10-16T10:06:45;4.30;;;1.83;;
19585;SDS011;9939;49.246;9.106;2022-10-16T10:09:21;6.13;;;1.50;;
19585;SDS011;9939;49.246;9.106;2022-10-16T10:16:47;6.10;;;2.17;;
19585;SDS011;9939;49.246;9.106;2022-10-16T10:24:16;3.67;;;1.30;;
19585;SDS011;9939;49.246;9.106;2022-10-16T10:29:20;6.45;;;1.42;;
19585;SDS011;9939;49.246;9.106;2022-10-16T10:37:04;3.92;;;1.40;;
19585;SDS011;9939;49.246;9.106;2022-10-16T10:39:43;2.75;;;1.05;;
19585;SDS011;9939;49.246;9.106;2022-10-16T10:42:33;3.00;;;1.17;;
19585;SDS011;9939;49.246;9.106;2022-10-16T10:45:16;3.90;;;1.17;;
19585;SDS011;9939;49.246;9.106;2022-10-16T10:47:52;2.97;;;1.20;;
19585;SDS011;9939;49.246;9.106;2022-10-16T10:50:43;3.50;;;1.30;;
19585;SDS011;9939;49.246;9.106;2022-10-16T11:07:18;4.90;;;1.07;;
19585;SDS011;9939;49.246;9.106;2022-10-16T11:09:51;5.82;;;1.33;;
19585;SDS011;9939;49.246;9.106;2022-10-16T11:12:44;3.75;;;1.80;;
19585;SDS011;9939;49.246;9.106;2022-10-16T11:15:17;3.17;;;1.30;;
19585;SDS011;9939;49.246;9.106;2022-10-16T11:17:52;3.10;;;1.20;;
19585;SDS011;9939;49.246;9.106;2022-10-16T11:20:28;2.38;;;1.30;;
19585;SDS011;9939;49.246;9.106;2022-10-16T11:23:02;4.18;;;1.45;;
19585;SDS011;9939;49.246;9.106;2022-10-16T11:25:44;2.47;;;1.20;;
19585;SDS011;9939;49.246;9.106;2022-10-16T11:36:44;2.92;;;1.20;;
19585;SDS011;9939;49.246;9.106;2022-10-16T11:39:32;2.17;;;1.00;;
19585;SDS011;9939;49.246;9.106;2022-10-16T11:47:44;1.50;;;0.95;;
19585;SDS011;9939;49.246;9.106;2022-10-16T11:55:36;3.85;;;1.45;;
19585;SDS011;9939;49.246;9.106;2022-10-16T12:01:10;3.53;;;1.02;;
19585;SDS011;9939;49.246;9.106;2022-10-16T12:03:47;2.58;;;1.10;;
19585;SDS011;9939;49.246;9.106;2022-10-16T12:08:47;3.37;;;1.00;;
19585;SDS011;9939;49.246;9.106;2022-10-16T12:16:57;3.47;;;1.25;;
19585;SDS011;9939;49.246;9.106;2022-10-16T12:19:28;5.82;;;1.20;;
19585;SDS011;9939;49.246;9.106;2022-10-16T12:21:57;3.13;;;1.00;;
19585;SDS011;9939;49.246;9.106;2022-10-16T12:27:00;5.10;;;1.13;;
19585;SDS011;9939;49.246;9.106;2022-10-16T12:32:02;6.07;;;1.30;;
19585;SDS011;9939;49.246;9.106;2022-10-16T12:37:20;5.80;;;1.20;;
19585;SDS011;9939;49.246;9.106;2022-10-16T12:39:48;7.10;;;1.37;;
19585;SDS011;9939;49.246;9.106;2022-10-16T12:42:21;2.30;;;1.00;;
19585;SDS011;9939;49.246;9.106;2022-10-16T12:44:52;5.50;;;1.17;;
19585;SDS011;9939;49.246;9.106;2022-10-16T12:47:35;5.30;;;1.20;;
19585;SDS011;9939;49.246;9.106;2022-10-16T12:53:03;4.50;;;1.37;;
19585;SDS011;9939;49.246;9.106;2022-10-16T13:09:57;3.37;;;0.83;;
19585;SDS011;9939;49.246;9.106;2022-10-16T13:18:17;2.93;;;1.10;;
19585;SDS011;9939;49.246;9.106;2022-10-16T13:24:37;3.83;;;1.10;;
19585;SDS011;9939;49.246;9.106;2022-10-16T13:30:18;2.30;;;1.10;;
19585;SDS011;9939;49.246;9.106;2022-10-16T13:33:02;2.27;;;1.40;;
19585;SDS011;9939;49.246;9.106;2022-10-16T13:35:35;6.70;;;1.40;;
19585;SDS011;9939;49.246;9.106;2022-10-16T13:38:14;3.40;;;1.60;;
19585;SDS011;9939;49.246;9.106;2022-10-16T13:43:19;3.60;;;1.17;;
19585;SDS011;9939;49.246;9.106;2022-10-16T13:45:56;2.97;;;1.10;;
19585;SDS011;9939;49.246;9.106;2022-10-16T13:48:33;3.93;;;1.30;;
19585;SDS011;9939;49.246;9.106;2022-10-16T13:51:17;2.30;;;1.20;;
19585;SDS011;9939;49.246;9.106;2022-10-16T13:53:48;2.90;;;1.50;;
19585;SDS011;9939;49.246;9.106;2022-10-16T13:56:19;4.63;;;1.30;;
19585;SDS011;9939;49.246;9.106;2022-10-16T13:59:04;3.37;;;1.20;;
19585;SDS011;9939;49.246;9.106;2022-10-16T14:01:39;1.83;;;1.00;;
19585;SDS011;9939;49.246;9.106;2022-10-16T14:04:09;2.40;;;1.20;;
19585;SDS011;9939;49.246;9.106;2022-10-16T14:06:49;2.90;;;1.23;;
19585;SDS011;9939;49.246;9.106;2022-10-16T14:09:23;4.53;;;1.10;;
19585;SDS011;9939;49.246;9.106;2022-10-16T14:12:02;4.80;;;1.37;;
19585;SDS011;9939;49.246;9.106;2022-10-16T14:14:43;6.40;;;1.40;;
19585;SDS011;9939;49.246;9.106;2022-10-16T14:17:23;2.23;;;1.40;;
19585;SDS011;9939;49.246;9.106;2022-10-16T14:19:57;4.97;;;1.27;;
19585;SDS011;9939;49.246;9.106;2022-10-16T14:22:33;2.80;;;1.27;;
19585;SDS011;9939;49.246;9.106;2022-10-16T14:28:14;4.80;;;2.40;;
19585;SDS011;9939;49.246;9.106;2022-10-16T14:30:57;3.93;;;1.40;;
19585;SDS011;9939;49.246;9.106;2022-10-16T14:38:31;3.63;;;2.00;;
19585;SDS011;9939;49.246;9.106;2022-10-16T14:40:59;4.70;;;1.30;;
19585;SDS011;9939;49.246;9.106;2022-10-16T14:43:30;4.37;;;1.60;;
19585;SDS011;9939;49.246;9.106;2022-10-16T14:46:02;4.43;;;1.83;;
19585;SDS011;9939;49.246;9.106;2022-10-16T14:48:34;4.73;;;1.47;;
19585;SDS011;9939;49.246;9.106;2022-10-16T14:51:14;2.53;;;1.40;;
19585;SDS011;9939;49.246;9.106;2022-10-16T14:53:46;5.47;;;1.73;;
19585;SDS011;9939;49.246;9.106;2022-10-16T14:56:18;4.37;;;1.70;;
19585;SDS011;9939;49.246;9.106;2022-10-16T14:58:47;5.87;;;2.00;;
19585;SDS011;9939;49.246;9.106;2022-10-16T15:01:17;3.23;;;1.60;;
19585;SDS011;9939;49.246;9.106;2022-10-16T15:03:44;2.03;;;1.30;;
19585;SDS011;9939;49.246;9.106;2022-10-16T15:06:13;2.33;;;1.50;;
19585;SDS011;9939;49.246;9.106;2022-10-16T15:08:41;6.93;;;1.60;;
19585;SDS011;9939;49.246;9.106;2022-10-16T15:11:12;4.27;;;1.60;;
19585;SDS011;9939;49.246;9.106;2022-10-16T15:13:42;5.10;;;1.60;;
19585;SDS011;9939;49.246;9.106;2022-10-16T15:16:15;4.83;;;1.57;;
19585;SDS011;9939;49.246;9.106;2022-10-16T15:18:43;2.23;;;1.30;;
19585;SDS011;9939;49.246;9.106;2022-10-16T15:21:15;6.17;;;1.67;;
19585;SDS011;9939;49.246;9.106;2022-10-16T15:23:52;6.67;;;1.83;;
19585;SDS011;9939;49.246;9.106;2022-10-16T15:26:20;4.93;;;1.53;;
19585;SDS011;9939;49.246;9.106;2022-10-16T15:28:47;3.67;;;1.47;;
19585;SDS011;9939;49.246;9.106;2022-10-16T15:31:14;6.77;;;1.90;;
19585;SDS011;9939;49.246;9.106;2022-10-16T15:33:41;5.40;;;1.73;;
19585;SDS011;9939;49.246;9.106;2022-10-16T15:36:08;2.40;;;1.60;;
19585;SDS011;9939;49.246;9.106;2022-10-16T15:38:35;4.23;;;2.10;;
19585;SDS011;9939;49.246;9.106;2022-10-16T15:41:02;5.10;;;1.60;;
19585;SDS011;9939;49.246;9.106;2022-10-16T15:43:29;3.63;;;1.70;;
19585;SDS011;9939;49.246;9.106;2022-10-16T15:46:04;5.40;;;2.30;;
19585;SDS011;9939;49.246;9.106;2022-10-16T15:48:33;4.57;;;1.97;;
19585;SDS011;9939;49.246;9.106;2022-10-16T15:51:00;5.37;;;1.70;;
19585;SDS011;9939;49.246;9.106;2022-10-16T15:53:31;4.10;;;1.87;;
19585;SDS011;9939;49.246;9.106;2022-10-16T15:56:00;5.53;;;2.10;;
19585;SDS011;9939;49.246;9.106;2022-10-16T15:58:32;5.23;;;2.00;;
19585;SDS011;9939;49.246;9.106;2022-10-16T16:00:59;6.60;;;2.30;;
19585;SDS011;9939;49.246;9.106;2022-10-16T16:03:28;8.53;;;1.97;;
19585;SDS011;9939;49.246;9.106;2022-10-16T16:05:55;6.37;;;2.23;;
19585;SDS011;9939;49.246;9.106;2022-10-16T16:08:23;7.57;;;2.63;;
19585;SDS011;9939;49.246;9.106;2022-10-16T16:11:00;3.87;;;1.90;;
19585;SDS011;9939;49.246;9.106;2022-10-16T16:13:31;3.90;;;1.90;;
19585;SDS011;9939;49.246;9.106;2022-10-16T16:15:59;6.57;;;2.10;;
19585;SDS011;9939;49.246;9.106;2022-10-16T16:18:26;4.40;;;2.90;;
19585;SDS011;9939;49.246;9.106;2022-10-16T16:20:54;5.37;;;2.67;;
19585;SDS011;9939;49.246;9.106;2022-10-16T16:23:22;4.13;;;2.80;;
19585;SDS011;9939;49.246;9.106;2022-10-16T16:26:02;2.70;;;2.00;;
19585;SDS011;9939;49.246;9.106;2022-10-16T16:28:48;9.33;;;2.13;;
19585;SDS011;9939;49.246;9.106;2022-10-16T16:31:15;5.37;;;2.50;;
19585;SDS011;9939;49.246;9.106;2022-10-16T16:33:43;6.63;;;2.47;;
19585;SDS011;9939;49.246;9.106;2022-10-16T16:36:10;5.80;;;2.20;;
19585;SDS011;9939;49.246;9.106;2022-10-16T16:38:41;8.87;;;2.17;;
19585;SDS011;9939;49.246;9.106;2022-10-16T16:41:27;3.97;;;2.50;;
19585;SDS011;9939;49.246;9.106;2022-10-16T16:44:04;6.20;;;2.33;;
19585;SDS011;9939;49.246;9.106;2022-10-16T16:46:34;6.57;;;2.47;;
19585;SDS011;9939;49.246;9.106;2022-10-16T16:49:01;8.00;;;3.50;;
19585;SDS011;9939;49.246;9.106;2022-10-16T16:51:29;6.33;;;3.10;;
19585;SDS011;9939;49.246;9.106;2022-10-16T16:53:56;6.97;;;3.30;;
19585;SDS011;9939;49.246;9.106;2022-10-16T16:56:23;8.20;;;3.20;;
19585;SDS011;9939;49.246;9.106;2022-10-16T16:58:53;4.67;;;2.60;;
19585;SDS011;9939;49.246;9.106;2022-10-16T17:01:22;13.43;;;2.83;;
19585;SDS011;9939;49.246;9.106;2022-10-16T17:03:50;7.57;;;3.10;;
19585;SDS011;9939;49.246;9.106;2022-10-16T17:06:19;14.07;;;3.97;;
19585;SDS011;9939;49.246;9.106;2022-10-16T17:08:48;6.70;;;3.17;;
19585;SDS011;9939;49.246;9.106;2022-10-16T17:11:23;6.17;;;2.97;;
19585;SDS011;9939;49.246;9.106;2022-10-16T17:13:53;7.53;;;2.90;;
19585;SDS011;9939;49.246;9.106;2022-10-16T17:16:23;5.93;;;2.63;;
19585;SDS011;9939;49.246;9.106;2022-10-16T17:18:53;10.17;;;2.67;;
19585;SDS011;9939;49.246;9.106;2022-10-16T17:21:20;9.07;;;2.83;;
19585;SDS011;9939;49.246;9.106;2022-10-16T17:23:50;12.53;;;2.70;;
19585;SDS011;9939;49.246;9.106;2022-10-16T17:26:18;9.77;;;2.80;;
19585;SDS011;9939;49.246;9.106;2022-10-16T17:28:45;7.43;;;2.30;;
19585;SDS011;9939;49.246;9.106;2022-10-16T17:31:20;8.20;;;3.50;;
19585;SDS011;9939;49.246;9.106;2022-10-16T17:41:18;19.40;;;5.80;;
19585;SDS011;9939;49.246;9.106;2022-10-16T17:46:19;13.40;;;5.20;;
19585;SDS011;9939;49.246;9.106;2022-10-16T17:48:48;9.00;;;4.57;;
19585;SDS011;9939;49.246;9.106;2022-10-16T17:51:20;15.83;;;5.37;;
19585;SDS011;9939;49.246;9.106;2022-10-16T17:53:53;13.57;;;6.70;;
19585;SDS011;9939;49.246;9.106;2022-10-16T17:56:22;15.10;;;8.27;;
19585;SDS011;9939;49.246;9.106;2022-10-16T17:58:51;18.07;;;8.43;;
19585;SDS011;9939;49.246;9.106;2022-10-16T18:01:20;16.20;;;7.43;;
19585;SDS011;9939;49.246;9.106;2022-10-16T18:03:51;15.23;;;6.97;;
19585;SDS011;9939;49.246;9.106;2022-10-16T18:06:19;23.63;;;7.20;;